createdAt,value
2019-05-23T00:02:15.805Z,12.80
2019-05-23T00:05:10.380Z,12.80
2019-05-23T00:08:04.334Z,12.80
2019-05-23T00:11:00.634Z,12.60
2019-05-23T00:13:51.967Z,12.60
2019-05-23T00:16:23.859Z,12.60
2019-05-23T00:18:57.401Z,12.50
2019-05-23T00:21:33.128Z,12.40
2019-05-23T00:24:04.235Z,12.50
2019-05-23T00:26:36.418Z,12.50
2019-05-23T00:29:10.353Z,12.40
2019-05-23T00:31:44.595Z,12.40
2019-05-23T00:34:15.189Z,12.40
2019-05-23T00:36:46.376Z,12.40
2019-05-23T00:39:16.810Z,12.40
2019-05-23T00:41:48.967Z,12.30
2019-05-23T00:44:20.156Z,12.30
2019-05-23T00:46:50.927Z,12.20
2019-05-23T00:49:22.158Z,12.20
2019-05-23T00:51:53.343Z,12.30
2019-05-23T00:54:23.548Z,12.30
2019-05-23T00:56:54.826Z,12.30
2019-05-23T00:59:27.577Z,12.30
2019-05-23T01:01:57.934Z,12.20
2019-05-23T01:04:27.975Z,12.20
2019-05-23T01:06:58.222Z,12.10
2019-05-23T01:09:28.718Z,12.20
2019-05-23T01:11:59.282Z,12.20
2019-05-23T01:14:30.191Z,12.20
2019-05-23T01:17:35.173Z,12.10
2019-05-23T01:20:09.959Z,12.10
2019-05-23T01:22:41.858Z,12.10
2019-05-23T01:25:13.824Z,12.20
2019-05-23T01:27:45.471Z,12.20
2019-05-23T01:30:17.327Z,12.20
2019-05-23T01:32:49.808Z,12.30
2019-05-23T01:35:21.664Z,12.10
2019-05-23T01:37:53.435Z,12.10
2019-05-23T01:40:24.912Z,12.20
2019-05-23T01:42:55.380Z,12.20
2019-05-23T01:45:26.570Z,12.20
2019-05-23T01:47:56.153Z,12.10
2019-05-23T01:50:27.295Z,12.20
2019-05-23T01:52:57.683Z,12.20
2019-05-23T01:55:28.234Z,12.20
2019-05-23T01:57:59.014Z,12.30
2019-05-23T02:00:43.242Z,12.20
2019-05-23T02:03:15.110Z,12.20
2019-05-23T02:05:45.599Z,12.20
2019-05-23T02:08:16.640Z,12.20
2019-05-23T02:10:47.518Z,12.10
2019-05-23T02:13:18.365Z,12.10
2019-05-23T02:15:48.783Z,12.20
2019-05-23T02:18:20.487Z,12.10
2019-05-23T02:20:50.731Z,12.10
2019-05-23T02:23:22.014Z,12.10
2019-05-23T02:25:51.535Z,12.00
2019-05-23T02:28:24.077Z,11.90
2019-05-23T02:30:54.872Z,11.80
2019-05-23T02:33:25.339Z,11.90
2019-05-23T02:35:56.215Z,11.90
2019-05-23T02:38:29.015Z,11.90
2019-05-23T02:41:10.272Z,11.90
2019-05-23T02:43:42.115Z,12.00
2019-05-23T02:46:14.061Z,12.00
2019-05-23T02:48:46.059Z,12.00
2019-05-23T02:51:26.323Z,12.00
2019-05-23T02:53:57.320Z,12.00
2019-05-23T02:56:28.780Z,12.10
2019-05-23T02:59:07.459Z,12.00
2019-05-23T03:02:14.883Z,12.00
2019-05-23T03:04:47.032Z,12.10
2019-05-23T03:07:20.333Z,11.90
2019-05-23T03:09:51.773Z,11.70
2019-05-23T03:12:25.239Z,11.70
2019-05-23T03:14:55.136Z,11.80
2019-05-23T03:17:27.078Z,11.80
2019-05-23T03:19:57.860Z,11.90
2019-05-23T03:22:46.693Z,11.80
2019-05-23T03:25:33.472Z,11.90
2019-05-23T03:28:04.557Z,11.90
2019-05-23T03:30:36.388Z,11.90
2019-05-23T03:33:08.619Z,11.90
2019-05-23T03:35:40.730Z,11.80
2019-05-23T03:38:11.212Z,11.90
2019-05-23T03:40:41.655Z,11.80
2019-05-23T03:43:12.631Z,11.90
2019-05-23T03:45:45.104Z,11.90
2019-05-23T03:48:15.417Z,11.90
2019-05-23T03:50:46.722Z,12.00
2019-05-23T03:53:18.370Z,12.00
2019-05-23T03:55:48.430Z,12.00
2019-05-23T03:58:18.732Z,12.00
2019-05-23T04:00:54.253Z,12.00
2019-05-23T04:03:30.365Z,11.90
2019-05-23T04:06:02.087Z,12.00
2019-05-23T04:08:32.386Z,11.90
2019-05-23T04:11:04.031Z,11.90
2019-05-23T04:13:34.242Z,12.00
2019-05-23T04:16:05.248Z,12.20
2019-05-23T04:18:35.627Z,12.20
2019-05-23T04:21:06.186Z,12.40
2019-05-23T04:23:36.427Z,12.50
2019-05-23T04:26:06.667Z,12.50
2019-05-23T04:28:36.903Z,12.60
2019-05-23T04:31:12.744Z,12.80
2019-05-23T04:33:40.623Z,13.00
2019-05-23T04:36:11.711Z,13.00
2019-05-23T04:38:42.076Z,13.70
2019-05-23T04:41:13.549Z,14.90
2019-05-23T04:43:43.084Z,16.10
2019-05-23T04:46:14.203Z,17.30
2019-05-23T04:48:43.752Z,18.30
2019-05-23T04:51:14.135Z,19.10
2019-05-23T04:53:44.948Z,20.20
2019-05-23T04:56:17.839Z,21.20
2019-05-23T04:58:49.045Z,21.90
2019-05-23T05:01:20.615Z,22.10
2019-05-23T05:03:52.256Z,22.30
2019-05-23T05:06:23.919Z,23.00
2019-05-23T05:08:56.779Z,23.60
2019-05-23T05:11:30.235Z,24.00
2019-05-23T05:13:58.585Z,24.20
2019-05-23T05:16:28.877Z,24.70
2019-05-23T05:19:03.789Z,24.40
2019-05-23T05:21:34.166Z,24.10
2019-05-23T05:24:04.494Z,24.20
2019-05-23T05:26:38.171Z,24.00
2019-05-23T05:29:09.669Z,24.60
2019-05-23T05:31:40.258Z,24.90
2019-05-23T05:34:12.532Z,25.40
2019-05-23T05:36:42.751Z,25.90
2019-05-23T05:39:14.121Z,26.10
2019-05-23T05:41:44.417Z,26.90
2019-05-23T05:44:16.698Z,27.30
2019-05-23T05:46:49.031Z,26.50
2019-05-23T05:49:21.108Z,25.70
2019-05-23T05:51:51.372Z,25.00
2019-05-23T05:54:32.705Z,24.10
2019-05-23T05:57:12.996Z,23.50
2019-05-23T05:59:43.976Z,22.90
2019-05-23T06:02:15.971Z,22.40
2019-05-23T06:04:46.228Z,22.50
2019-05-23T06:07:36.153Z,23.30
2019-05-23T06:10:09.071Z,23.40
2019-05-23T06:12:39.347Z,24.70
2019-05-23T06:15:09.620Z,25.50
2019-05-23T06:17:39.847Z,27.20
2019-05-23T06:20:13.095Z,27.40
2019-05-23T06:22:44.502Z,28.70
2019-05-23T06:25:16.137Z,29.80
2019-05-23T06:27:46.480Z,30.70
2019-05-23T06:30:17.542Z,31.90
2019-05-23T06:32:48.118Z,33.30
2019-05-23T06:35:22.010Z,33.20
2019-05-23T06:37:52.502Z,33.80
2019-05-23T06:40:23.960Z,34.40
2019-05-23T06:42:54.336Z,35.20
2019-05-23T06:45:25.295Z,36.10
2019-05-23T06:47:57.225Z,35.70
2019-05-23T06:50:27.954Z,36.10
2019-05-23T06:52:58.321Z,35.70
2019-05-23T06:55:32.004Z,34.60
2019-05-23T06:58:02.283Z,33.90
2019-05-23T07:00:35.668Z,33.70
2019-05-23T07:03:07.161Z,33.30
2019-05-23T07:05:39.543Z,33.50
2019-05-23T07:08:10.370Z,34.50
2019-05-23T07:10:41.805Z,35.00
2019-05-23T07:13:13.338Z,35.20
2019-05-23T07:15:44.147Z,36.20
2019-05-23T07:18:15.733Z,38.10
2019-05-23T07:20:46.968Z,39.60
2019-05-23T07:23:17.228Z,40.50
2019-05-23T07:25:48.339Z,40.90
2019-05-23T07:28:18.552Z,40.20
2019-05-23T07:30:49.989Z,39.30
2019-05-23T07:33:20.241Z,39.00
2019-05-23T07:35:51.349Z,39.90
2019-05-23T07:38:21.868Z,40.40
2019-05-23T07:40:53.400Z,41.00
2019-05-23T07:43:24.812Z,41.10
2019-05-23T07:45:58.794Z,40.40
2019-05-23T07:48:29.176Z,40.10
2019-05-23T07:50:59.595Z,39.10
2019-05-23T07:53:31.539Z,38.70
2019-05-23T07:56:03.828Z,37.60
2019-05-23T07:58:34.133Z,37.30
2019-05-23T08:01:18.864Z,38.20
2019-05-23T08:03:50.406Z,38.60
2019-05-23T08:06:20.818Z,38.60
2019-05-23T08:08:51.052Z,37.70
2019-05-23T08:11:24.661Z,37.70
2019-05-23T08:13:55.181Z,37.40
2019-05-23T08:16:31.823Z,37.30
2019-05-23T08:19:02.079Z,37.10
2019-05-23T08:21:32.699Z,37.20
2019-05-23T08:24:03.503Z,37.80
2019-05-23T08:26:33.834Z,36.90
2019-05-23T08:29:41.323Z,36.60
2019-05-23T08:32:12.664Z,35.60
2019-05-23T08:34:43.269Z,33.80
2019-05-23T08:37:15.242Z,33.20
2019-05-23T08:39:45.793Z,33.00
2019-05-23T08:42:18.709Z,32.20
2019-05-23T08:45:25.445Z,30.90
2019-05-23T08:47:55.712Z,29.70
2019-05-23T08:50:25.947Z,29.60
2019-05-23T08:52:56.209Z,29.10
2019-05-23T08:55:26.603Z,28.80
2019-05-23T08:57:57.999Z,28.80
2019-05-23T09:00:32.511Z,28.60
2019-05-23T09:03:03.643Z,28.00
2019-05-23T09:05:34.891Z,27.50
2019-05-23T09:08:05.850Z,27.50
2019-05-23T09:10:37.536Z,27.90
2019-05-23T09:13:08.479Z,27.60
2019-05-23T09:15:38.758Z,27.70
2019-05-23T09:18:14.078Z,28.40
2019-05-23T09:20:44.598Z,28.70
2019-05-23T09:23:15.174Z,29.20
2019-05-23T09:25:45.418Z,29.10
2019-05-23T09:28:16.515Z,29.00
2019-05-23T09:30:46.731Z,28.60
2019-05-23T09:33:18.385Z,28.80
2019-05-23T09:35:48.791Z,29.20
2019-05-23T09:38:20.211Z,29.00
2019-05-23T09:40:50.476Z,29.30
2019-05-23T09:43:20.659Z,29.50
2019-05-23T09:46:07.553Z,30.10
2019-05-23T09:48:40.870Z,29.50
2019-05-23T09:51:12.709Z,30.20
2019-05-23T09:53:47.198Z,30.70
2019-05-23T09:56:15.961Z,30.90
2019-05-23T09:59:32.042Z,31.90
2019-05-23T10:02:02.742Z,32.50
2019-05-23T10:04:33.837Z,31.60
2019-05-23T10:07:03.683Z,32.50
2019-05-23T10:09:33.753Z,33.40
2019-05-23T10:12:03.950Z,33.90
2019-05-23T10:14:35.810Z,33.20
2019-05-23T10:17:06.091Z,32.10
2019-05-23T10:19:36.268Z,32.80
2019-05-23T10:22:07.200Z,32.50
2019-05-23T10:24:37.429Z,32.60
2019-05-23T10:27:09.467Z,32.30
2019-05-23T10:29:39.679Z,33.00
2019-05-23T10:32:11.392Z,32.10
2019-05-23T10:34:41.754Z,32.80
2019-05-23T10:37:14.616Z,33.10
2019-05-23T10:39:47.237Z,32.60
2019-05-23T10:42:17.872Z,31.90
2019-05-23T10:44:48.151Z,32.80
2019-05-23T10:47:18.895Z,33.60
2019-05-23T10:49:49.408Z,33.60
2019-05-23T10:52:20.375Z,32.80
2019-05-23T10:54:50.631Z,31.70
2019-05-23T10:57:21.559Z,31.10
2019-05-23T10:59:51.855Z,30.40
2019-05-23T11:02:22.179Z,31.40
2019-05-23T11:04:52.555Z,31.50
2019-05-23T11:07:23.064Z,31.40
2019-05-23T11:09:53.920Z,31.40
2019-05-23T11:12:23.633Z,32.10
2019-05-23T11:14:53.985Z,32.70
2019-05-23T11:17:24.236Z,33.10
2019-05-23T11:19:54.720Z,32.50
2019-05-23T11:22:25.113Z,32.00
2019-05-23T11:24:55.453Z,31.50
2019-05-23T11:27:26.687Z,30.80
2019-05-23T11:30:37.695Z,31.40
2019-05-23T11:33:09.523Z,31.90
2019-05-23T11:35:40.075Z,31.40
2019-05-23T11:38:10.362Z,31.80
2019-05-23T11:40:40.716Z,31.40
2019-05-23T11:43:11.011Z,31.80
2019-05-23T11:46:01.263Z,32.50
2019-05-23T11:48:33.077Z,32.00
2019-05-23T11:51:03.300Z,33.00
2019-05-23T11:53:33.867Z,33.70
2019-05-23T11:56:04.235Z,33.10
2019-05-23T11:58:34.776Z,33.00
2019-05-23T12:01:52.339Z,33.50
2019-05-23T12:04:23.492Z,33.00
2019-05-23T12:07:07.411Z,32.50
2019-05-23T12:09:37.734Z,31.40
2019-05-23T12:12:07.949Z,31.20
2019-05-23T12:14:38.380Z,31.30
2019-05-23T12:17:09.012Z,30.80
2019-05-23T12:19:39.354Z,31.40
2019-05-23T12:22:09.653Z,31.80
2019-05-23T12:24:41.040Z,31.80
2019-05-23T12:27:12.495Z,31.80
2019-05-23T12:29:42.754Z,31.70
2019-05-23T12:32:14.131Z,31.80
2019-05-23T12:34:44.323Z,32.30
2019-05-23T12:37:19.215Z,32.80
2019-05-23T12:39:46.541Z,32.80
2019-05-23T12:42:16.780Z,32.80
2019-05-23T12:44:46.972Z,32.20
2019-05-23T12:47:18.988Z,31.60
2019-05-23T12:49:51.349Z,31.30
2019-05-23T12:52:21.649Z,31.00
2019-05-23T12:54:51.971Z,31.10
2019-05-23T12:57:22.189Z,31.00
2019-05-23T12:59:52.668Z,31.00
2019-05-23T13:02:24.964Z,31.90
2019-05-23T13:04:55.344Z,31.60
2019-05-23T13:07:35.911Z,31.50
2019-05-23T13:09:58.644Z,31.20
2019-05-23T13:12:28.926Z,31.10
2019-05-23T13:14:59.282Z,31.10
2019-05-23T13:17:46.744Z,31.30
2019-05-23T13:20:17.023Z,30.80
2019-05-23T13:22:47.357Z,30.70
2019-05-23T13:25:18.062Z,30.40
2019-05-23T13:27:48.411Z,31.00
2019-05-23T13:30:18.669Z,31.30
2019-05-23T13:32:48.951Z,31.80
2019-05-23T13:35:19.219Z,31.80
2019-05-23T13:37:53.458Z,31.30
2019-05-23T13:40:21.866Z,30.60
2019-05-23T13:42:52.072Z,29.90
2019-05-23T13:45:22.370Z,29.70
2019-05-23T13:47:53.111Z,29.80
2019-05-23T13:50:23.573Z,29.60
2019-05-23T13:52:53.843Z,29.90
2019-05-23T13:55:24.613Z,30.20
2019-05-23T13:57:54.931Z,29.90
2019-05-23T14:00:26.923Z,30.00
2019-05-23T14:03:17.475Z,30.20
2019-05-23T14:05:47.998Z,30.50
2019-05-23T14:08:19.261Z,30.20
2019-05-23T14:10:49.739Z,30.10
2019-05-23T14:13:20.301Z,30.00
2019-05-23T14:15:52.369Z,30.30
2019-05-23T14:18:24.444Z,30.20
2019-05-23T14:20:55.094Z,30.00
2019-05-23T14:23:30.857Z,30.00
2019-05-23T14:26:01.357Z,30.20
2019-05-23T14:28:32.223Z,29.90
2019-05-23T14:31:04.094Z,29.90
2019-05-23T14:33:52.292Z,29.80
2019-05-23T14:36:24.145Z,30.10
2019-05-23T14:38:56.362Z,29.70
2019-05-23T14:41:44.159Z,29.40
2019-05-23T14:44:03.347Z,30.30
2019-05-23T14:46:40.799Z,30.20
2019-05-23T14:49:15.423Z,30.30
2019-05-23T14:51:47.341Z,30.10
2019-05-23T14:54:19.538Z,30.40
2019-05-23T14:56:50.179Z,30.40
2019-05-23T14:59:20.807Z,30.40
2019-05-23T15:01:52.102Z,30.40
2019-05-23T15:04:22.776Z,30.20
2019-05-23T15:06:52.993Z,30.50
2019-05-23T15:09:24.122Z,31.10
2019-05-23T15:11:53.742Z,31.20
2019-05-23T15:14:23.737Z,31.30
2019-05-23T15:16:57.488Z,31.00
2019-05-23T15:19:40.441Z,30.60
2019-05-23T15:21:59.877Z,30.10
2019-05-23T15:24:30.656Z,29.60
2019-05-23T15:27:00.931Z,29.80
2019-05-23T15:29:31.156Z,29.60
2019-05-23T15:32:03.216Z,29.80
2019-05-23T15:34:35.271Z,29.40
2019-05-23T15:37:05.593Z,29.20
2019-05-23T15:39:36.412Z,28.80
2019-05-23T15:42:06.849Z,28.90
2019-05-23T15:44:37.168Z,29.20
2019-05-23T15:47:45.995Z,29.20
2019-05-23T15:50:29.555Z,29.30
2019-05-23T15:53:42.171Z,29.60
2019-05-23T15:56:26.693Z,29.60
2019-05-23T15:58:51.539Z,29.60
2019-05-23T16:01:23.409Z,29.40
2019-05-23T16:03:55.564Z,29.10
2019-05-23T16:06:26.956Z,29.20
2019-05-23T16:08:57.260Z,29.20
2019-05-23T16:11:27.486Z,29.20
2019-05-23T16:13:57.881Z,29.10
2019-05-23T16:16:28.102Z,29.00
2019-05-23T16:18:58.674Z,28.80
2019-05-23T16:21:29.048Z,28.90
2019-05-23T16:24:01.731Z,29.20
2019-05-23T16:26:31.935Z,29.10
2019-05-23T16:29:02.116Z,29.10
2019-05-23T16:31:32.326Z,29.30
2019-05-23T16:34:02.722Z,29.30
2019-05-23T16:36:33.108Z,29.40
2019-05-23T16:39:04.231Z,29.00
2019-05-23T16:41:34.587Z,28.60
2019-05-23T16:44:12.752Z,27.90
2019-05-23T16:46:44.571Z,28.20
2019-05-23T16:49:32.588Z,28.00
2019-05-23T16:52:03.138Z,27.80
2019-05-23T16:54:35.609Z,27.10
2019-05-23T16:57:21.699Z,26.50
2019-05-23T17:00:04.792Z,26.60
2019-05-23T17:02:38.295Z,26.40
2019-05-23T17:05:10.909Z,26.60
2019-05-23T17:07:51.847Z,26.80
2019-05-23T17:10:27.654Z,26.70
2019-05-23T17:13:16.057Z,26.70
2019-05-23T17:16:21.896Z,27.10
2019-05-23T17:19:16.445Z,26.70
2019-05-23T17:22:10.898Z,26.90
2019-05-23T17:25:24.564Z,26.80
2019-05-23T17:28:09.071Z,26.30
2019-05-23T17:30:52.323Z,26.10
2019-05-23T17:33:44.264Z,25.80
2019-05-23T17:36:23.491Z,25.80
2019-05-23T17:38:56.124Z,25.60
2019-05-23T17:41:29.992Z,25.30
2019-05-23T17:44:00.265Z,25.20
2019-05-23T17:46:30.697Z,25.30
2019-05-23T17:49:18.057Z,25.10
2019-05-23T17:51:48.373Z,24.90
2019-05-23T17:54:18.968Z,24.80
2019-05-23T17:56:49.475Z,24.60
2019-05-23T17:59:19.783Z,24.40
2019-05-23T18:01:49.986Z,24.50
2019-05-23T18:07:44.003Z,24.20
2019-05-23T18:10:14.492Z,24.00
2019-05-23T18:12:44.779Z,23.90
2019-05-23T18:15:15.480Z,23.90
2019-05-23T18:17:47.038Z,23.80
2019-05-23T18:20:17.487Z,23.60
2019-05-23T18:22:49.572Z,23.60
2019-05-23T18:25:21.514Z,23.60
2019-05-23T18:27:51.861Z,23.60
2019-05-23T18:30:41.041Z,23.70
2019-05-23T18:33:13.323Z,23.70
2019-05-23T18:35:44.055Z,23.50
2019-05-23T18:38:14.332Z,23.50
2019-05-23T18:41:01.266Z,23.50
2019-05-23T18:43:17.773Z,23.40
2019-05-23T18:45:50.076Z,23.30
2019-05-23T18:48:20.295Z,23.30
2019-05-23T18:50:51.141Z,23.30
2019-05-23T18:53:21.423Z,23.20
2019-05-23T18:55:54.884Z,23.10
2019-05-23T18:58:26.543Z,23.00
2019-05-23T19:01:03.030Z,22.90
2019-05-23T19:03:35.383Z,22.90
2019-05-23T19:06:05.614Z,22.80
2019-05-23T19:08:35.942Z,22.70
2019-05-23T19:11:20.204Z,22.70
2019-05-23T19:13:42.765Z,22.60
2019-05-23T19:16:13.082Z,22.50
2019-05-23T19:18:43.772Z,22.40
2019-05-23T19:21:15.042Z,22.30
2019-05-23T19:23:45.505Z,22.10
2019-05-23T19:26:16.506Z,22.00
2019-05-23T19:28:46.900Z,22.00
2019-05-23T19:31:20.680Z,21.80
2019-05-23T19:33:51.532Z,21.70
2019-05-23T19:36:23.127Z,21.60
2019-05-23T19:38:53.459Z,21.50
2019-05-23T19:41:37.485Z,21.40
2019-05-23T19:44:05.474Z,21.30
2019-05-23T19:46:37.407Z,21.00
2019-05-23T19:49:08.747Z,20.90
2019-05-23T19:51:38.551Z,20.80
2019-05-23T19:54:08.845Z,20.60
2019-05-23T19:56:40.002Z,20.50
2019-05-23T19:59:10.730Z,20.30
2019-05-23T20:01:53.495Z,20.20
2019-05-23T20:04:30.442Z,20.20
2019-05-23T20:06:58.697Z,20.00
2019-05-23T20:09:29.008Z,19.90
2019-05-23T20:11:59.527Z,19.80
2019-05-23T20:14:29.703Z,19.80
2019-05-23T20:16:59.909Z,19.70
2019-05-23T20:19:31.758Z,19.60
2019-05-23T20:22:30.268Z,19.50
2019-05-23T20:25:00.942Z,19.40
2019-05-23T20:27:32.526Z,19.30
2019-05-23T20:30:02.803Z,19.20
2019-05-23T20:32:33.369Z,19.10
2019-05-23T20:35:15.108Z,19.00
2019-05-23T20:37:48.335Z,18.90
2019-05-23T20:40:18.518Z,18.90
2019-05-23T20:42:56.480Z,18.80
2019-05-23T20:45:25.323Z,18.80
2019-05-23T20:48:00.576Z,18.80
2019-05-23T20:50:39.826Z,18.80
2019-05-23T20:53:10.116Z,18.80
2019-05-23T20:55:44.667Z,18.70
2019-05-23T20:58:15.962Z,18.70
2019-05-23T21:00:52.220Z,18.70
2019-05-23T21:03:23.741Z,18.70
2019-05-23T21:05:54.347Z,18.70
2019-05-23T21:08:24.699Z,18.70
2019-05-23T21:10:57.199Z,18.70
2019-05-23T21:13:27.418Z,18.70
2019-05-23T21:15:57.617Z,18.60
2019-05-23T21:18:27.857Z,18.60
2019-05-23T21:20:58.124Z,18.60
2019-05-23T21:23:28.335Z,18.60
2019-05-23T21:26:00.999Z,18.60
2019-05-23T21:28:31.440Z,18.60
2019-05-23T21:31:02.021Z,18.60
2019-05-23T21:33:32.590Z,18.60
2019-05-23T21:36:03.750Z,18.50
2019-05-23T21:38:37.286Z,18.50
2019-05-23T21:41:07.645Z,18.50
2019-05-23T21:43:37.959Z,18.40
2019-05-23T21:46:08.211Z,18.40
2019-05-23T21:48:38.500Z,18.30
2019-05-23T21:51:08.689Z,18.30
2019-05-23T21:53:39.094Z,18.30
2019-05-23T21:56:09.320Z,18.20
2019-05-23T21:58:39.600Z,18.20
2019-05-23T22:01:14.073Z,18.10
2019-05-23T22:03:48.480Z,18.10
2019-05-23T22:06:20.355Z,18.10
2019-05-23T22:08:51.675Z,18.10
2019-05-23T22:11:22.007Z,18.10
2019-05-23T22:13:52.316Z,18.00
2019-05-23T22:16:23.213Z,18.00
2019-05-23T22:18:53.430Z,18.00
2019-05-23T22:21:43.728Z,18.00
2019-05-23T22:24:15.958Z,18.00
2019-05-23T22:26:48.000Z,18.00
2019-05-23T22:29:18.307Z,18.00
2019-05-23T22:31:48.529Z,18.00
2019-05-23T22:34:20.936Z,18.00
2019-05-23T22:36:51.148Z,18.00
2019-05-23T22:39:21.348Z,18.10
2019-05-23T22:41:51.762Z,18.10
2019-05-23T22:44:22.255Z,18.10
2019-05-23T22:46:52.552Z,18.10
2019-05-23T22:49:22.815Z,18.10
2019-05-23T22:51:53.098Z,18.00
2019-05-23T22:54:24.465Z,18.00
2019-05-23T22:56:54.689Z,17.90
2019-05-23T22:59:24.967Z,17.90
2019-05-23T23:01:55.271Z,17.90
2019-05-23T23:04:25.469Z,17.90
2019-05-23T23:06:55.687Z,17.90
2019-05-23T23:09:25.911Z,18.00
2019-05-23T23:11:56.215Z,17.90
2019-05-23T23:14:26.507Z,17.90
2019-05-23T23:16:56.735Z,17.90
2019-05-23T23:19:26.918Z,17.90
2019-05-23T23:21:57.132Z,17.90
2019-05-23T23:24:27.323Z,18.00
2019-05-23T23:26:57.544Z,18.00
2019-05-23T23:29:27.747Z,18.00
2019-05-23T23:31:58.037Z,17.90
2019-05-23T23:34:28.240Z,17.80
2019-05-23T23:36:58.455Z,17.90
2019-05-23T23:39:28.695Z,17.70
2019-05-23T23:41:58.911Z,17.80
2019-05-23T23:44:34.519Z,17.80
2019-05-23T23:47:23.620Z,17.80
2019-05-23T23:50:12.030Z,17.70
2019-05-23T23:53:00.290Z,17.60
2019-05-23T23:55:49.604Z,17.50
2019-05-23T23:58:19.685Z,17.40
